createdAt,value
2023-05-02T00:00:18.813Z,100.00
2023-05-02T00:02:24.513Z,100.00
2023-05-02T00:04:29.804Z,100.00
2023-05-02T00:06:35.595Z,100.00
2023-05-02T00:08:40.802Z,100.00
2023-05-02T00:10:46.484Z,100.00
2023-05-02T00:12:51.537Z,100.00
2023-05-02T00:14:56.914Z,100.00
2023-05-02T00:17:05.617Z,100.00
2023-05-02T00:19:10.908Z,100.00
2023-05-02T00:21:16.741Z,100.00
2023-05-02T00:23:21.852Z,100.00
2023-05-02T00:25:26.858Z,100.00
2023-05-02T00:27:33.946Z,100.00
2023-05-02T00:29:39.477Z,100.00
2023-05-02T00:31:44.745Z,100.00
2023-05-02T00:33:52.384Z,100.00
2023-05-02T00:35:57.839Z,100.00
2023-05-02T00:38:03.502Z,100.00
2023-05-02T00:40:10.886Z,100.00
2023-05-02T00:42:16.261Z,100.00
2023-05-02T00:44:22.208Z,100.00
2023-05-02T00:46:27.432Z,100.00
2023-05-02T00:48:33.006Z,100.00
2023-05-02T00:50:46.117Z,100.00
2023-05-02T00:52:51.468Z,100.00
2023-05-02T00:54:57.400Z,100.00
2023-05-02T00:57:03.815Z,100.00
2023-05-02T00:59:10.146Z,100.00
2023-05-02T01:01:36.043Z,100.00
2023-05-02T01:03:54.264Z,100.00
2023-05-02T01:06:16.046Z,100.00
2023-05-02T01:08:34.367Z,100.00
2023-05-02T01:10:53.192Z,100.00
2023-05-02T01:13:06.669Z,100.00
2023-05-02T01:15:19.695Z,100.00
2023-05-02T01:17:29.367Z,100.00
2023-05-02T01:19:39.167Z,100.00
2023-05-02T01:21:47.562Z,100.00
2023-05-02T01:24:05.887Z,100.00
2023-05-02T01:26:23.552Z,100.00
2023-05-02T01:28:39.546Z,100.00
2023-05-02T01:30:50.933Z,100.00
2023-05-02T01:32:59.958Z,100.00
2023-05-02T01:35:08.059Z,100.00
2023-05-02T01:37:15.699Z,100.00
2023-05-02T01:39:26.021Z,100.00
2023-05-02T01:41:35.542Z,100.00
2023-05-02T01:43:42.670Z,100.00
2023-05-02T01:45:54.395Z,100.00
2023-05-02T01:48:01.124Z,100.00
2023-05-02T01:50:10.963Z,100.00
2023-05-02T01:52:18.615Z,100.00
2023-05-02T01:54:26.987Z,100.00
2023-05-02T01:56:35.778Z,100.00
2023-05-02T01:58:41.827Z,100.00
2023-05-02T02:00:48.712Z,100.00
2023-05-02T02:03:00.595Z,100.00
2023-05-02T02:05:10.975Z,100.00
2023-05-02T02:07:17.321Z,100.00
2023-05-02T02:09:22.637Z,100.00
2023-05-02T02:11:39.495Z,100.00
2023-05-02T02:13:51.661Z,100.00
2023-05-02T02:16:04.435Z,100.00
2023-05-02T02:18:17.818Z,100.00
2023-05-02T02:20:24.788Z,100.00
2023-05-02T02:22:32.403Z,100.00
2023-05-02T02:24:41.909Z,100.00
2023-05-02T02:26:47.837Z,100.00
2023-05-02T02:28:53.415Z,100.00
2023-05-02T02:30:59.425Z,100.00
2023-05-02T02:33:04.901Z,100.00
2023-05-02T02:35:14.242Z,100.00
2023-05-02T02:37:22.950Z,100.00
2023-05-02T02:39:47.361Z,100.00
2023-05-02T02:42:04.818Z,100.00
2023-05-02T02:44:25.992Z,100.00
2023-05-02T02:46:45.349Z,100.00
2023-05-02T02:48:59.588Z,100.00
2023-05-02T02:51:16.233Z,100.00
2023-05-02T02:53:28.862Z,100.00
2023-05-02T02:55:47.746Z,100.00
2023-05-02T02:58:02.681Z,100.00
2023-05-02T03:00:16.452Z,100.00
2023-05-02T03:02:25.906Z,100.00
2023-05-02T03:04:33.437Z,100.00
2023-05-02T03:06:42.435Z,100.00
2023-05-02T03:08:48.442Z,100.00
2023-05-02T03:10:57.352Z,100.00
2023-05-02T03:13:02.426Z,100.00
2023-05-02T03:15:24.771Z,100.00
2023-05-02T03:17:30.445Z,100.00
2023-05-02T03:19:35.779Z,100.00
2023-05-02T03:21:43.682Z,100.00
2023-05-02T03:23:55.044Z,100.00
2023-05-02T03:26:00.325Z,100.00
2023-05-02T03:28:05.840Z,100.00
2023-05-02T03:30:12.773Z,100.00
2023-05-02T03:32:17.789Z,100.00
2023-05-02T03:34:23.727Z,100.00
2023-05-02T03:36:30.364Z,100.00
2023-05-02T03:38:38.037Z,100.00
2023-05-02T03:40:47.061Z,100.00
2023-05-02T03:42:52.120Z,100.00
2023-05-02T03:45:06.682Z,100.00
2023-05-02T03:47:13.815Z,100.00
2023-05-02T03:49:20.630Z,100.00
2023-05-02T03:51:28.054Z,100.00
2023-05-02T03:53:38.499Z,100.00
2023-05-02T03:55:44.750Z,100.00
2023-05-02T03:57:56.742Z,100.00
2023-05-02T04:00:02.233Z,100.00
2023-05-02T04:02:17.120Z,100.00
2023-05-02T04:04:26.184Z,100.00
2023-05-02T04:06:33.273Z,100.00
2023-05-02T04:08:44.967Z,100.00
2023-05-02T04:10:50.522Z,100.00
2023-05-02T04:12:55.615Z,100.00
2023-05-02T04:15:01.970Z,100.00
2023-05-02T04:17:08.760Z,100.00
2023-05-02T04:19:22.084Z,100.00
2023-05-02T04:21:27.761Z,100.00
2023-05-02T04:23:33.648Z,100.00
2023-05-02T04:25:43.051Z,100.00
2023-05-02T04:27:48.919Z,100.00
2023-05-02T04:29:58.567Z,100.00
2023-05-02T04:32:03.933Z,100.00
2023-05-02T04:34:10.400Z,100.00
2023-05-02T04:36:20.680Z,100.00
2023-05-02T04:38:26.434Z,100.00
2023-05-02T04:40:32.394Z,100.00
2023-05-02T04:42:44.870Z,100.00
2023-05-02T04:44:55.813Z,100.00
2023-05-02T04:47:00.925Z,100.00
2023-05-02T04:49:06.559Z,100.00
2023-05-02T04:51:12.829Z,100.00
2023-05-02T04:53:20.920Z,100.00
2023-05-02T04:55:26.523Z,100.00
2023-05-02T04:57:31.674Z,100.00
2023-05-02T04:59:41.483Z,100.00
2023-05-02T05:01:47.851Z,100.00
2023-05-02T05:03:53.252Z,100.00
2023-05-02T05:05:58.760Z,100.00
2023-05-02T05:08:04.531Z,100.00
2023-05-02T05:10:14.119Z,100.00
2023-05-02T05:12:23.492Z,100.00
2023-05-02T05:14:29.378Z,100.00
2023-05-02T05:16:37.739Z,100.00
2023-05-02T05:18:43.198Z,100.00
2023-05-02T05:20:50.991Z,100.00
2023-05-02T05:22:56.168Z,100.00
2023-05-02T05:25:02.944Z,100.00
2023-05-02T05:27:10.276Z,100.00
2023-05-02T05:29:15.720Z,100.00
2023-05-02T05:31:23.293Z,100.00
2023-05-02T05:33:36.275Z,100.00
2023-05-02T05:35:42.472Z,100.00
2023-05-02T05:37:47.969Z,100.00
2023-05-02T05:39:55.489Z,100.00
2023-05-02T05:42:02.740Z,100.00
2023-05-02T05:44:08.580Z,100.00
2023-05-02T05:46:14.127Z,100.00
2023-05-02T05:48:19.240Z,100.00
2023-05-02T05:50:27.906Z,100.00
2023-05-02T05:52:32.940Z,100.00
2023-05-02T05:54:39.927Z,100.00
2023-05-02T05:56:45.017Z,100.00
2023-05-02T05:58:54.920Z,100.00
2023-05-02T06:01:00.422Z,100.00
2023-05-02T06:03:07.395Z,100.00
2023-05-02T06:05:14.551Z,100.00
2023-05-02T06:07:23.905Z,100.00
2023-05-02T06:09:29.236Z,100.00
2023-05-02T06:11:34.918Z,100.00
2023-05-02T06:13:39.987Z,100.00
2023-05-02T06:15:46.390Z,100.00
2023-05-02T06:17:53.282Z,100.00
2023-05-02T06:19:58.582Z,100.00
2023-05-02T06:22:04.307Z,100.00
2023-05-02T06:24:12.077Z,100.00
2023-05-02T06:26:17.534Z,100.00
2023-05-02T06:28:22.808Z,100.00
2023-05-02T06:30:28.103Z,100.00
2023-05-02T06:32:34.249Z,100.00
2023-05-02T06:34:39.358Z,100.00
2023-05-02T06:36:44.545Z,100.00
2023-05-02T06:38:50.401Z,100.00
2023-05-02T06:40:58.308Z,100.00
2023-05-02T06:43:03.603Z,100.00
2023-05-02T06:45:10.379Z,100.00
2023-05-02T06:47:15.913Z,100.00
2023-05-02T06:49:21.004Z,100.00
2023-05-02T06:51:26.425Z,100.00
2023-05-02T06:53:33.028Z,100.00
2023-05-02T06:55:38.351Z,100.00
2023-05-02T06:57:46.516Z,100.00
2023-05-02T06:59:51.523Z,100.00
2023-05-02T07:01:57.014Z,100.00
2023-05-02T07:04:04.060Z,100.00
2023-05-02T07:06:09.235Z,100.00
2023-05-02T07:08:14.357Z,100.00
2023-05-02T07:10:19.400Z,100.00
2023-05-02T07:12:24.872Z,100.00
2023-05-02T07:14:32.488Z,100.00
2023-05-02T07:16:37.630Z,100.00
2023-05-02T07:18:42.946Z,100.00
2023-05-02T07:20:48.634Z,100.00
2023-05-02T07:22:54.258Z,100.00
2023-05-02T07:25:04.457Z,100.00
2023-05-02T07:27:09.513Z,100.00
2023-05-02T07:29:14.522Z,100.00
2023-05-02T07:31:22.369Z,100.00
2023-05-02T07:33:27.989Z,100.00
2023-05-02T07:35:33.047Z,100.00
2023-05-02T07:37:38.824Z,100.00
2023-05-02T07:39:43.860Z,100.00
2023-05-02T07:41:48.911Z,100.00
2023-05-02T07:43:54.413Z,100.00
2023-05-02T07:45:59.481Z,100.00
2023-05-02T07:48:08.443Z,100.00
2023-05-02T07:50:14.461Z,100.00
2023-05-02T07:52:19.482Z,100.00
2023-05-02T07:54:26.385Z,100.00
2023-05-02T07:56:33.493Z,100.00
2023-05-02T07:58:39.078Z,100.00
2023-05-02T08:00:44.097Z,100.00
2023-05-02T08:02:49.148Z,100.00
2023-05-02T08:04:56.864Z,100.00
2023-05-02T08:07:01.913Z,100.00
2023-05-02T08:09:07.064Z,100.00
2023-05-02T08:11:12.156Z,100.00
2023-05-02T08:13:17.225Z,100.00
2023-05-02T08:15:22.235Z,100.00
2023-05-02T08:17:29.279Z,100.00
2023-05-02T08:19:34.414Z,100.00
2023-05-02T08:21:42.032Z,100.00
2023-05-02T08:23:47.051Z,100.00
2023-05-02T08:25:52.115Z,100.00
2023-05-02T08:27:57.142Z,100.00
2023-05-02T08:30:02.383Z,100.00
2023-05-02T08:32:08.408Z,100.00
2023-05-02T08:34:13.510Z,100.00
2023-05-02T08:36:20.444Z,100.00
2023-05-02T08:38:28.330Z,100.00
2023-05-02T08:40:42.372Z,100.00
2023-05-02T08:42:48.287Z,100.00
2023-05-02T08:44:54.233Z,100.00
2023-05-02T08:47:00.248Z,100.00
2023-05-02T08:49:06.386Z,100.00
2023-05-02T08:51:13.391Z,100.00
2023-05-02T08:53:20.825Z,100.00
2023-05-02T08:55:29.429Z,100.00
2023-05-02T08:57:34.949Z,100.00
2023-05-02T08:59:40.337Z,100.00
2023-05-02T09:01:49.006Z,100.00
2023-05-02T09:03:56.066Z,100.00
2023-05-02T09:06:10.325Z,100.00
2023-05-02T09:08:16.647Z,100.00
2023-05-02T09:10:22.359Z,100.00
2023-05-02T09:12:31.303Z,100.00
2023-05-02T09:14:36.667Z,100.00
2023-05-02T09:16:42.723Z,100.00
2023-05-02T09:18:50.264Z,100.00
2023-05-02T09:20:56.309Z,100.00
2023-05-02T09:23:01.340Z,100.00
2023-05-02T09:25:07.810Z,100.00
2023-05-02T09:27:13.406Z,100.00
2023-05-02T09:29:23.441Z,100.00
2023-05-02T09:31:53.992Z,100.00
2023-05-02T09:33:57.088Z,100.00
2023-05-02T09:36:02.119Z,100.00
2023-05-02T09:38:07.264Z,100.00
2023-05-02T09:40:14.354Z,100.00
2023-05-02T09:42:34.212Z,100.00
2023-05-02T09:44:43.321Z,100.00
2023-05-02T09:46:51.481Z,100.00
2023-05-02T09:48:58.441Z,100.00
2023-05-02T09:51:05.190Z,100.00
2023-05-02T09:53:12.317Z,100.00
2023-05-02T09:55:24.251Z,100.00
2023-05-02T09:57:43.556Z,100.00
2023-05-02T10:00:01.128Z,100.00
2023-05-02T10:02:09.829Z,100.00
2023-05-02T10:04:18.980Z,100.00
2023-05-02T10:06:24.801Z,100.00
2023-05-02T10:08:31.554Z,100.00
2023-05-02T10:10:39.385Z,100.00
2023-05-02T10:12:45.280Z,100.00
2023-05-02T10:14:59.464Z,100.00
2023-05-02T10:17:14.454Z,100.00
2023-05-02T10:19:26.926Z,100.00
2023-05-02T10:21:32.994Z,100.00
2023-05-02T10:23:38.882Z,100.00
2023-05-02T10:25:44.320Z,100.00
2023-05-02T10:27:50.631Z,100.00
2023-05-02T10:29:56.351Z,100.00
2023-05-02T10:32:03.994Z,100.00
2023-05-02T10:34:13.910Z,100.00
2023-05-02T10:36:22.984Z,100.00
2023-05-02T10:38:28.758Z,100.00
2023-05-02T10:40:34.327Z,100.00
2023-05-02T10:42:43.053Z,100.00
2023-05-02T10:44:49.105Z,100.00
2023-05-02T10:46:54.416Z,100.00
2023-05-02T10:49:11.977Z,100.00
2023-05-02T10:51:32.150Z,100.00
2023-05-02T10:53:39.771Z,100.00
2023-05-02T10:55:44.851Z,100.00
2023-05-02T10:58:24.285Z,100.00
2023-05-02T11:00:32.503Z,100.00
2023-05-02T11:02:53.393Z,100.00
2023-05-02T11:05:09.353Z,100.00
2023-05-02T11:07:22.430Z,100.00
2023-05-02T11:09:38.888Z,100.00
2023-05-02T11:11:45.417Z,100.00
2023-05-02T11:13:53.607Z,100.00
2023-05-02T11:16:02.185Z,100.00
2023-05-02T11:18:10.000Z,100.00
2023-05-02T11:20:35.265Z,100.00
2023-05-02T11:22:40.890Z,100.00
2023-05-02T11:24:47.950Z,100.00
2023-05-02T11:26:53.117Z,100.00
2023-05-02T11:28:58.197Z,100.00
2023-05-02T11:31:03.717Z,100.00
2023-05-02T11:33:20.666Z,100.00
2023-05-02T11:35:28.036Z,100.00
2023-05-02T11:37:36.593Z,100.00
2023-05-02T11:39:41.717Z,100.00
2023-05-02T11:41:48.436Z,100.00
2023-05-02T11:44:06.661Z,100.00
2023-05-02T11:46:12.753Z,100.00
2023-05-02T11:48:22.545Z,100.00
2023-05-02T11:50:30.447Z,100.00
2023-05-02T11:52:41.466Z,100.00
2023-05-02T11:54:47.508Z,100.00
2023-05-02T11:56:52.624Z,100.00
2023-05-02T11:59:02.018Z,100.00
2023-05-02T12:01:17.741Z,100.00
2023-05-02T12:03:29.861Z,100.00
2023-05-02T12:05:36.059Z,100.00
2023-05-02T12:07:45.975Z,100.00
2023-05-02T12:09:54.921Z,100.00
2023-05-02T12:12:02.103Z,100.00
2023-05-02T12:14:08.414Z,100.00
2023-05-02T12:16:13.624Z,100.00
2023-05-02T12:18:21.520Z,100.00
2023-05-02T12:20:28.335Z,100.00
2023-05-02T12:22:34.069Z,100.00
2023-05-02T12:24:43.683Z,100.00
2023-05-02T12:26:50.129Z,100.00
2023-05-02T12:28:58.386Z,100.00
2023-05-02T12:31:13.927Z,100.00
2023-05-02T12:33:19.580Z,100.00
2023-05-02T12:35:25.773Z,100.00
2023-05-02T12:37:31.908Z,100.00
2023-05-02T12:39:44.492Z,100.00
2023-05-02T12:41:49.593Z,100.00
2023-05-02T12:43:54.789Z,100.00
2023-05-02T12:46:13.657Z,100.00
2023-05-02T12:48:36.742Z,100.00
2023-05-02T12:50:42.730Z,100.00
2023-05-02T12:52:57.646Z,100.00
2023-05-02T12:55:24.615Z,100.00
2023-05-02T12:57:30.331Z,100.00
2023-05-02T12:59:36.156Z,100.00
2023-05-02T13:01:41.657Z,100.00
2023-05-02T13:03:48.438Z,100.00
2023-05-02T13:05:57.311Z,100.00
2023-05-02T13:08:03.133Z,100.00
2023-05-02T13:10:09.705Z,100.00
2023-05-02T13:12:18.433Z,100.00
2023-05-02T13:14:23.482Z,100.00
2023-05-02T13:16:30.507Z,98.29
2023-05-02T13:18:36.509Z,87.02
2023-05-02T13:20:41.619Z,95.23
2023-05-02T13:22:46.905Z,96.07
2023-05-02T13:24:51.943Z,100.00
2023-05-02T13:26:57.914Z,100.00
2023-05-02T13:29:06.200Z,100.00
2023-05-02T13:31:11.470Z,100.00
2023-05-02T13:33:17.386Z,100.00
2023-05-02T13:35:22.448Z,100.00
2023-05-02T13:37:28.268Z,100.00
2023-05-02T13:39:33.335Z,100.00
2023-05-02T13:41:38.723Z,96.24
2023-05-02T13:43:43.742Z,97.71
2023-05-02T13:45:52.561Z,89.44
2023-05-02T13:47:58.065Z,92.64
2023-05-02T13:50:03.715Z,95.69
2023-05-02T13:52:09.610Z,94.57
2023-05-02T13:54:15.420Z,100.00
2023-05-02T13:56:21.054Z,100.00
2023-05-02T13:58:26.273Z,100.00
2023-05-02T14:00:31.861Z,100.00
2023-05-02T14:02:40.261Z,91.10
2023-05-02T14:04:45.279Z,96.93
2023-05-02T14:06:50.635Z,100.00
2023-05-02T14:08:56.274Z,95.59
2023-05-02T14:11:01.333Z,96.29
2023-05-02T14:13:06.794Z,100.00
2023-05-02T14:15:13.245Z,100.00
2023-05-02T14:17:18.247Z,100.00
2023-05-02T14:19:26.348Z,100.00
2023-05-02T14:21:31.920Z,100.00
2023-05-02T14:23:37.390Z,100.00
2023-05-02T14:25:42.592Z,100.00
2023-05-02T14:27:47.639Z,100.00
2023-05-02T14:29:52.908Z,100.00
2023-05-02T14:31:57.981Z,100.00
2023-05-02T14:34:03.511Z,100.00
2023-05-02T14:36:12.669Z,100.00
2023-05-02T14:38:17.988Z,100.00
2023-05-02T14:40:23.019Z,100.00
2023-05-02T14:42:28.609Z,100.00
2023-05-02T14:44:33.942Z,100.00
2023-05-02T14:46:39.259Z,100.00
2023-05-02T14:48:44.810Z,100.00
2023-05-02T14:50:49.812Z,100.00
2023-05-02T14:52:57.669Z,100.00
2023-05-02T14:55:03.631Z,100.00
2023-05-02T14:57:09.259Z,100.00
2023-05-02T14:59:14.574Z,100.00
2023-05-02T15:01:20.859Z,100.00
2023-05-02T15:03:26.389Z,100.00
2023-05-02T15:05:31.772Z,100.00
2023-05-02T15:07:36.799Z,100.00
2023-05-02T15:09:44.819Z,100.00
2023-05-02T15:11:49.846Z,100.00
2023-05-02T15:13:56.593Z,100.00
2023-05-02T15:16:03.927Z,100.00
2023-05-02T15:18:09.228Z,100.00
2023-05-02T15:20:16.136Z,100.00
2023-05-02T15:22:22.444Z,100.00
2023-05-02T15:24:27.897Z,100.00
2023-05-02T15:26:36.357Z,100.00
2023-05-02T15:28:41.590Z,100.00
2023-05-02T15:30:46.933Z,100.00
2023-05-02T15:32:52.081Z,100.00
2023-05-02T15:34:57.670Z,100.00
2023-05-02T15:37:03.884Z,100.00
2023-05-02T15:39:09.919Z,100.00
2023-05-02T15:41:14.971Z,100.00
2023-05-02T15:43:23.031Z,100.00
2023-05-02T15:45:28.689Z,100.00
2023-05-02T15:47:33.895Z,100.00
2023-05-02T15:49:39.189Z,100.00
2023-05-02T15:51:44.237Z,100.00
2023-05-02T15:53:52.501Z,100.00
2023-05-02T15:55:58.073Z,100.00
2023-05-02T15:58:03.107Z,100.00
2023-05-02T16:00:17.013Z,100.00
2023-05-02T16:02:22.176Z,100.00
2023-05-02T16:04:28.770Z,100.00
2023-05-02T16:06:34.720Z,100.00
2023-05-02T16:08:39.768Z,100.00
2023-05-02T16:10:45.036Z,100.00
2023-05-02T16:12:50.134Z,100.00
2023-05-02T16:14:55.442Z,100.00
2023-05-02T16:17:04.129Z,100.00
2023-05-02T16:19:13.577Z,100.00
2023-05-02T16:21:19.078Z,100.00
2023-05-02T16:23:24.426Z,100.00
2023-05-02T16:25:30.114Z,100.00
2023-05-02T16:27:36.514Z,100.00
2023-05-02T16:29:42.067Z,100.00
2023-05-02T16:31:47.372Z,100.00
2023-05-02T16:33:55.240Z,100.00
2023-05-02T16:36:04.645Z,100.00
2023-05-02T16:38:09.773Z,100.00
2023-05-02T16:40:16.413Z,100.00
2023-05-02T16:42:21.463Z,100.00
2023-05-02T16:44:26.561Z,100.00
2023-05-02T16:46:32.119Z,100.00
2023-05-02T16:48:37.857Z,96.12
2023-05-02T16:50:45.449Z,94.18
2023-05-02T16:52:50.823Z,88.42
2023-05-02T16:54:56.135Z,85.12
2023-05-02T16:57:02.800Z,81.95
2023-05-02T16:59:07.809Z,87.53
2023-05-02T17:01:13.029Z,80.19
2023-05-02T17:03:18.115Z,78.77
2023-05-02T17:05:23.617Z,84.66
2023-05-02T17:07:31.518Z,84.73
2023-05-02T17:09:37.180Z,81.35
2023-05-02T17:11:42.284Z,78.78
2023-05-02T17:13:47.419Z,80.54
2023-05-02T17:15:53.018Z,76.44
2023-05-02T17:17:58.081Z,77.68
2023-05-02T17:20:03.725Z,77.28
2023-05-02T17:22:10.241Z,80.53
2023-05-02T17:24:18.002Z,85.05
2023-05-02T17:26:23.044Z,82.62
2023-05-02T17:28:28.660Z,86.80
2023-05-02T17:30:34.483Z,90.43
2023-05-02T17:32:40.366Z,95.07
2023-05-02T17:34:45.780Z,100.00
2023-05-02T17:36:50.823Z,100.00
2023-05-02T17:38:56.664Z,100.00
2023-05-02T17:41:04.316Z,100.00
2023-05-02T17:43:09.648Z,100.00
2023-05-02T17:45:15.171Z,100.00
2023-05-02T17:47:20.328Z,100.00
2023-05-02T17:49:26.639Z,100.00
2023-05-02T17:51:32.202Z,100.00
2023-05-02T17:53:37.825Z,100.00
2023-05-02T17:55:42.846Z,100.00
2023-05-02T17:57:50.454Z,100.00
2023-05-02T17:59:58.527Z,100.00
2023-05-02T18:02:04.064Z,100.00
2023-05-02T18:04:13.062Z,100.00
2023-05-02T18:06:19.439Z,100.00
2023-05-02T18:08:24.496Z,100.00
2023-05-02T18:10:30.258Z,100.00
2023-05-02T18:12:35.939Z,100.00
2023-05-02T18:14:43.835Z,100.00
2023-05-02T18:16:49.217Z,100.00
2023-05-02T18:18:54.481Z,100.00
2023-05-02T18:20:59.675Z,100.00
2023-05-02T18:23:06.174Z,100.00
2023-05-02T18:25:11.860Z,100.00
2023-05-02T18:27:16.908Z,100.00
2023-05-02T18:29:21.996Z,100.00
2023-05-02T18:31:29.657Z,100.00
2023-05-02T18:33:35.010Z,100.00
2023-05-02T18:35:40.048Z,100.00
2023-05-02T18:37:45.049Z,100.00
2023-05-02T18:39:50.061Z,100.00
2023-05-02T18:41:55.075Z,100.00
2023-05-02T18:44:00.933Z,100.00
2023-05-02T18:46:06.041Z,100.00
2023-05-02T18:48:13.643Z,100.00
2023-05-02T18:50:18.710Z,100.00
2023-05-02T18:52:24.811Z,100.00
2023-05-02T18:54:29.832Z,100.00
2023-05-02T18:56:35.400Z,100.00
2023-05-02T18:58:40.416Z,100.00
2023-05-02T19:00:45.958Z,100.00
2023-05-02T19:02:54.417Z,100.00
2023-05-02T19:05:02.879Z,100.00
2023-05-02T19:07:09.339Z,100.00
2023-05-02T19:09:15.882Z,100.00
2023-05-02T19:11:23.065Z,100.00
2023-05-02T19:13:28.494Z,100.00
2023-05-02T19:15:33.500Z,100.00
2023-05-02T19:17:39.416Z,100.00
2023-05-02T19:19:46.831Z,100.00
2023-05-02T19:21:55.266Z,100.00
2023-05-02T19:24:00.384Z,100.00
2023-05-02T19:26:06.048Z,100.00
2023-05-02T19:28:13.122Z,100.00
2023-05-02T19:30:18.668Z,100.00
2023-05-02T19:32:25.524Z,100.00
2023-05-02T19:34:31.970Z,100.00
2023-05-02T19:36:37.010Z,100.00
2023-05-02T19:38:45.402Z,100.00
2023-05-02T19:40:50.547Z,100.00
2023-05-02T19:42:57.242Z,100.00
2023-05-02T19:45:02.644Z,100.00
2023-05-02T19:47:08.048Z,100.00
2023-05-02T19:49:13.826Z,100.00
2023-05-02T19:51:25.337Z,100.00
2023-05-02T19:53:31.608Z,100.00
2023-05-02T19:55:39.251Z,100.00
2023-05-02T19:57:45.161Z,100.00
2023-05-02T19:59:50.169Z,100.00
2023-05-02T20:01:55.959Z,100.00
2023-05-02T20:04:01.532Z,100.00
2023-05-02T20:06:07.025Z,100.00
2023-05-02T20:08:12.558Z,100.00
2023-05-02T20:10:18.461Z,100.00
2023-05-02T20:12:26.172Z,100.00
2023-05-02T20:14:31.945Z,100.00
2023-05-02T20:16:37.073Z,100.00
2023-05-02T20:18:42.380Z,100.00
2023-05-02T20:20:47.480Z,100.00
2023-05-02T20:22:54.575Z,100.00
2023-05-02T20:24:59.939Z,100.00
2023-05-02T20:27:05.876Z,100.00
2023-05-02T20:29:13.742Z,100.00
2023-05-02T20:31:18.766Z,100.00
2023-05-02T20:33:27.485Z,100.00
2023-05-02T20:35:35.672Z,100.00
2023-05-02T20:37:40.888Z,100.00
2023-05-02T20:39:46.195Z,100.00
2023-05-02T20:41:51.718Z,100.00
2023-05-02T20:43:57.336Z,100.00
2023-05-02T20:46:12.980Z,100.00
2023-05-02T20:48:20.000Z,100.00
2023-05-02T20:50:25.714Z,100.00
2023-05-02T20:52:30.883Z,100.00
2023-05-02T20:54:36.550Z,100.00
2023-05-02T20:56:41.955Z,100.00
2023-05-02T20:58:46.981Z,100.00
2023-05-02T21:00:52.822Z,100.00
2023-05-02T21:03:00.527Z,100.00
2023-05-02T21:05:06.627Z,100.00
2023-05-02T21:07:11.746Z,100.00
2023-05-02T21:09:18.791Z,100.00
2023-05-02T21:11:23.876Z,100.00
2023-05-02T21:13:28.968Z,100.00
2023-05-02T21:15:38.642Z,100.00
2023-05-02T21:17:43.737Z,100.00
2023-05-02T21:19:51.320Z,100.00
2023-05-02T21:21:56.322Z,100.00
2023-05-02T21:24:01.386Z,100.00
2023-05-02T21:26:07.221Z,100.00
2023-05-02T21:28:12.221Z,100.00
2023-05-02T21:30:18.075Z,100.00
2023-05-02T21:32:24.019Z,100.00
2023-05-02T21:34:29.350Z,100.00
2023-05-02T21:36:37.542Z,100.00
2023-05-02T21:38:42.647Z,100.00
2023-05-02T21:40:47.654Z,100.00
2023-05-02T21:42:52.644Z,100.00
2023-05-02T21:44:58.472Z,100.00
2023-05-02T21:47:03.845Z,100.00
2023-05-02T21:49:08.985Z,100.00
2023-05-02T21:51:15.183Z,100.00
2023-05-02T21:53:22.816Z,100.00
2023-05-02T21:55:28.754Z,100.00
2023-05-02T21:57:33.803Z,100.00
2023-05-02T21:59:38.807Z,100.00
2023-05-02T22:01:44.093Z,100.00
2023-05-02T22:03:49.132Z,100.00
2023-05-02T22:05:54.688Z,100.00
2023-05-02T22:08:00.878Z,100.00
2023-05-02T22:10:10.265Z,100.00
2023-05-02T22:12:15.537Z,100.00
2023-05-02T22:14:22.086Z,100.00
2023-05-02T22:16:29.380Z,100.00
2023-05-02T22:18:34.515Z,100.00
2023-05-02T22:20:39.526Z,100.00
2023-05-02T22:22:44.809Z,100.00
2023-05-02T22:24:50.087Z,100.00
2023-05-02T22:26:58.597Z,100.00
2023-05-02T22:29:03.620Z,100.00
2023-05-02T22:31:08.984Z,100.00
2023-05-02T22:33:14.852Z,100.00
2023-05-02T22:35:20.138Z,100.00
2023-05-02T22:37:25.189Z,100.00
2023-05-02T22:39:30.759Z,100.00
2023-05-02T22:41:35.863Z,100.00
2023-05-02T22:43:43.480Z,100.00
2023-05-02T22:45:51.347Z,100.00
2023-05-02T22:47:56.636Z,100.00
2023-05-02T22:50:05.498Z,100.00
2023-05-02T22:52:10.861Z,100.00
2023-05-02T22:54:16.995Z,100.00
2023-05-02T22:56:22.057Z,100.00
2023-05-02T22:58:27.227Z,100.00
2023-05-02T23:00:34.955Z,100.00
2023-05-02T23:02:40.341Z,100.00
2023-05-02T23:04:45.961Z,100.00
2023-05-02T23:06:51.076Z,100.00
2023-05-02T23:08:56.112Z,100.00
2023-05-02T23:11:01.114Z,100.00
2023-05-02T23:13:06.733Z,100.00
2023-05-02T23:15:13.332Z,100.00
2023-05-02T23:17:20.960Z,100.00
2023-05-02T23:19:26.100Z,100.00
2023-05-02T23:21:31.148Z,100.00
2023-05-02T23:23:36.167Z,100.00
2023-05-02T23:25:42.749Z,100.00
2023-05-02T23:27:47.808Z,100.00
2023-05-02T23:29:52.951Z,100.00
2023-05-02T23:31:58.188Z,100.00
2023-05-02T23:34:05.924Z,100.00
2023-05-02T23:36:12.458Z,100.00
2023-05-02T23:38:17.612Z,100.00
2023-05-02T23:40:22.714Z,100.00
2023-05-02T23:42:27.781Z,100.00
2023-05-02T23:44:33.245Z,100.00
2023-05-02T23:46:38.371Z,100.00
2023-05-02T23:48:43.555Z,100.00
2023-05-02T23:50:51.356Z,100.00
2023-05-02T23:52:56.386Z,100.00
2023-05-02T23:55:01.437Z,100.00
2023-05-02T23:57:06.521Z,100.00
2023-05-02T23:59:11.577Z,100.00
